Hugheston, West Virginia
Current Conditions -  °F | °C
As of 7:54 PM on Monday 26 Jan 2015 (Local Time) from KCRW Reporting Station
Light Snow Light Snow  
Wind Chill: 22°   Ceiling: 1200
Heat Index: 27°   Visibility: 9mi
Dew Point: 22°   Wind: 5mph
Humidity: 81%   Direction: NA
Pressure: 29.9"   Gusts: NA
Location:  38.21°N, 81.37°W
Report Text: KCRW 270054Z VRB04KT 9SM -SN OVC012 M03/M06 A2990 RMK AO2 SLP133 P0000 T10281056
Loading
Personal Weather Stations






























Interactive Weather Map New forecast layout! Learn more

10-Day Weather Forecast

Advertisements
Track Severe Weather on mobile